Time;durP1;ratioP1;P1;durP2;ratioP2;P2;SDS_P1;SDS_P2;PMS_P1;PMS_P2;Temp;Humidity;BMP_temperature;BMP_pressure;BME280_temperature;BME280_humidity;BME280_pressure;Samples;Min_cycle;Max_cycle;Signal;HPM_P1;HPM_P2
2023/08/14 00:00:07;;;;;;;;;;;;;;;;;;1040325;28;20365;-78
2023/08/14 00:00:37;;;;;;;;;;;;;;;;;;1040580;28;20042;-76
2023/08/14 00:01:08;;;;;;;;;;;;;;;;;;1040215;28;19917;-76
2023/08/14 00:01:38;;;;;;;;;;;;;;;;;;1044720;28;19912;-76
2023/08/14 00:02:08;;;;;;;;;;;;;;;;;;1044472;28;19913;-76
2023/08/14 00:02:38;;;;;;;;;;;;;;;;;;1044785;28;19920;-76
2023/08/14 00:03:08;;;;;;;;;;;;;;;;;;1044567;28;19916;-76
2023/08/14 00:03:39;;;;;;;;;;;;;;;;;;1040156;28;19913;-76
2023/08/14 00:04:09;;;;;;;;;;;;;;;;;;1036011;28;19909;-76
2023/08/14 00:04:39;;;;;;;;;;;;;;;;;;1036150;28;19913;-76
2023/08/14 00:05:09;;;;;;;;;;;;;;;;;;1036042;28;19909;-76
2023/08/14 00:05:40;;;;;;;;;;;;;;;;;;1040212;28;20446;-76
2023/08/14 00:06:11;;;;;;;;;;;;;;;;;;1040272;28;19975;-76
2023/08/14 00:06:41;;;;;;;;;;;;;;;;;;1036087;28;19920;-76
2023/08/14 00:07:11;;;;;;;;;;;;;;;;;;1036151;28;19933;-76
2023/08/14 00:07:41;;;;;;;;;;;;;;;;;;1040288;28;19909;-75
2023/08/14 00:08:12;;;;;;;;;;;;;;;;;;1040206;28;19909;-76
2023/08/14 00:08:42;;;;;;;;;;;;;;;;;;1044692;28;20292;-76
2023/08/14 00:09:12;;;;;;;;;;;;;;;;;;1044826;28;19959;-77
2023/08/14 00:09:43;;;;;;;;;;;;;;;;;;1040326;28;19909;-77
2023/08/14 00:10:13;;;;;;;;;;;;;;;;;;1040270;28;19909;-77
2023/08/14 00:10:43;;;;;;;;;;;;;;;;;;1040394;28;19953;-77
2023/08/14 00:11:13;;;;;;;;;;;;;;;;;;1040419;28;19909;-78
2023/08/14 00:11:44;;;;;;;;;;;;;;;;;;1040178;28;19909;-76
2023/08/14 00:12:14;;;;;;;;;;;;;;;;;;1040151;28;19915;-75
2023/08/14 00:12:44;;;;;;;;;;;;;;;;;;1040223;28;19913;-74
2023/08/14 00:13:14;;;;;;;;;;;;;;;;;;1040117;28;19913;-75
2023/08/14 00:13:44;;;;;;;;;;;;;;;;;;1044649;28;19960;-75
2023/08/14 00:14:15;;;;;;;;;;;;;;;;;;1044659;28;19916;-75
2023/08/14 00:14:45;;;;;;;;;;;;;;;;;;1044642;28;19909;-75
2023/08/14 00:15:15;;;;;;;;;;;;;;;;;;1044646;28;19909;-75
2023/08/14 00:15:45;;;;;;;;;;;;;;;;;;1044651;28;19909;-75
2023/08/14 00:16:16;;;;;;;;;;;;;;;;;;1044589;28;19952;-75
2023/08/14 00:16:46;;;;;;;;;;;;;;;;;;1040112;28;19909;-75
2023/08/14 00:17:16;;;;;;;;;;;;;;;;;;1040207;28;20432;-76
2023/08/14 00:17:46;;;;;;;;;;;;;;;;;;1040294;28;20402;-75
2023/08/14 00:18:17;;;;;;;;;;;;;;;;;;1040149;28;20439;-76
2023/08/14 00:18:47;;;;;;;;;;;;;;;;;;1040120;28;19932;-76
2023/08/14 00:19:17;;;;;;;;;;;;;;;;;;1040196;28;19917;-76
2023/08/14 00:19:47;;;;;;;;;;;;;;;;;;1040234;28;20063;-75
2023/08/14 00:20:18;;;;;;;;;;;;;;;;;;1040194;28;20412;-76
2023/08/14 00:20:48;;;;;;;;;;;;;;;;;;1044219;28;19917;-76
2023/08/14 00:21:18;;;;;;;;;;;;;;;;;;1044371;28;19909;-77
2023/08/14 00:21:48;;;;;;;;;;;;;;;;;;1044569;28;19915;-77
2023/08/14 00:22:18;;;;;;;;;;;;;;;;;;1040041;28;20349;-78
2023/08/14 00:22:49;;;;;;;;;;;;;;;;;;1040493;28;20289;-78
2023/08/14 00:23:19;;;;;;;;;;;;;;;;;;1040309;28;19917;-78
2023/08/14 00:23:49;;;;;;;;;;;;;;;;;;1040320;28;20332;-78
2023/08/14 00:24:19;;;;;;;;;;;;;;;;;;1044527;28;19913;-78
2023/08/14 00:24:50;;;;;;;;;;;;;;;;;;1044558;28;19944;-78
2023/08/14 00:25:20;;;;;;;;;;;;;;;;;;1044539;28;19915;-79
2023/08/14 00:25:50;;;;;;;;;;;;;;;;;;1040264;28;19952;-79
2023/08/14 00:26:21;;;;;;;;;;;;;;;;;;1040342;28;20400;-78
2023/08/14 00:26:51;;;;;;;;;;;;;;;;;;1040510;28;19940;-78
2023/08/14 00:27:22;;;;;;;;;;;;;;;;;;1040249;28;19919;-78
2023/08/14 00:27:52;;;;;;;;;;;;;;;;;;1040451;28;19905;-78
2023/08/14 00:28:23;;;;;;;;;;;;;;;;;;1040483;28;20004;-78
2023/08/14 00:28:53;;;;;;;;;;;;;;;;;;1036398;28;19910;-79
2023/08/14 00:29:23;;;;;;;;;;;;;;;;;;1040499;28;20005;-79
2023/08/14 00:29:54;;;;;;;;;;;;;;;;;;1040300;28;20396;-78
2023/08/14 00:30:24;;;;;;;;;;;;;;;;;;1040558;28;19909;-78
2023/08/14 00:30:54;;;;;;;;;;;;;;;;;;1040200;28;20393;-79
2023/08/14 00:31:25;;;;;;;;;;;;;;;;;;1040515;28;20372;-79
2023/08/14 00:31:55;;;;;;;;;;;;;;;;;;1036001;28;20320;-79
2023/08/14 00:32:25;;;;;;;;;;;;;;;;;;1036183;28;20404;-79
2023/08/14 00:32:58;;;;;;;;;;;;;;;;;;1040289;28;20295;-76
2023/08/14 00:33:28;;;;;;;;;;;;;;;;;;1040341;28;20010;-76
2023/08/14 00:33:58;;;;;;;;;;;;;;;;;;1040650;28;20414;-77
2023/08/14 00:34:28;;;;;;;;;;;;;;;;;;1045203;28;20374;-77
2023/08/14 00:34:59;;;;;;;;;;;;;;;;;;1040822;28;19909;-76
2023/08/14 00:35:29;;;;;;;;;;;;;;;;;;1041171;28;20265;-77
2023/08/14 00:35:59;;;;;;;;;;;;;;;;;;1036828;28;20436;-77
2023/08/14 00:36:30;;;;;;;;;;;;;;;;;;1037053;28;19956;-76
2023/08/14 00:37:00;;;;;;;;;;;;;;;;;;1040623;28;19952;-77
2023/08/14 00:37:30;;;;;;;;;;;;;;;;;;1037038;28;19975;-78
2023/08/14 00:38:00;;;;;;;;;;;;;;;;;;1036634;28;19909;-77
2023/08/14 00:38:30;;;;;;;;;;;;;;;;;;1040938;28;19917;-76
2023/08/14 00:39:03;;;;;;;;;;;;;;;;;;1036730;28;19925;-76
2023/08/14 00:39:33;;;;;;;;;;;;;;;;;;1037256;28;19914;-76
2023/08/14 00:40:03;;;;;;;;;;;;;;;;;;1040897;28;19956;-76
2023/08/14 00:40:33;;;;;;;;;;;;;;;;;;1041192;28;19959;-76
2023/08/14 00:41:03;;;;;;;;;;;;;;;;;;1045272;28;19908;-76
2023/08/14 00:41:34;;;;;;;;;;;;;;;;;;1045483;28;19920;-78
2023/08/14 00:42:04;;;;;;;;;;;;;;;;;;1045440;28;20011;-78
2023/08/14 00:42:34;;;;;;;;;;;;;;;;;;1045658;28;19975;-78
2023/08/14 00:43:05;;;;;;;;;;;;;;;;;;1045426;28;19935;-78
2023/08/14 00:43:35;;;;;;;;;;;;;;;;;;1045667;28;19920;-78
2023/08/14 00:44:05;;;;;;;;;;;;;;;;;;1045348;28;19909;-75
2023/08/14 00:44:35;;;;;;;;;;;;;;;;;;1045580;28;20380;-78
2023/08/14 00:45:06;;;;;;;;;;;;;;;;;;1040820;28;19909;-77
2023/08/14 00:45:36;;;;;;;;;;;;;;;;;;1036929;28;19917;-76
2023/08/14 00:46:06;;;;;;;;;;;;;;;;;;1036952;28;19916;-78
2023/08/14 00:46:36;;;;;;;;;;;;;;;;;;1037080;28;20369;-78
2023/08/14 00:47:06;;;;;;;;;;;;;;;;;;1040986;28;20361;-78
2023/08/14 00:47:37;;;;;;;;;;;;;;;;;;1041131;28;20466;-76
2023/08/14 00:48:07;;;;;;;;;;;;;;;;;;1040822;28;19910;-76
2023/08/14 00:48:37;;;;;;;;;;;;;;;;;;1045465;28;19917;-76
2023/08/14 00:49:07;;;;;;;;;;;;;;;;;;1045273;28;19917;-76
2023/08/14 00:49:38;;;;;;;;;;;;;;;;;;1045431;28;19917;-76
2023/08/14 00:50:08;;;;;;;;;;;;;;;;;;1045259;28;19916;-76
2023/08/14 00:50:38;;;;;;;;;;;;;;;;;;1045443;28;19927;-76
2023/08/14 00:51:08;;;;;;;;;;;;;;;;;;1045265;28;19915;-76
2023/08/14 00:51:39;;;;;;;;;;;;;;;;;;1045453;28;20011;-76
2023/08/14 00:52:09;;;;;;;;;;;;;;;;;;1045246;28;19909;-76
2023/08/14 00:52:39;;;;;;;;;;;;;;;;;;1045398;28;20336;-76
2023/08/14 00:53:10;;;;;;;;;;;;;;;;;;1039439;28;19909;-76
2023/08/14 00:53:40;;;;;;;;;;;;;;;;;;1040933;28;19913;-76
2023/08/14 00:54:10;;;;;;;;;;;;;;;;;;1036690;28;19916;-76
2023/08/14 00:54:40;;;;;;;;;;;;;;;;;;1036751;28;20004;-76
2023/08/14 00:55:11;;;;;;;;;;;;;;;;;;1040916;28;19909;-78
2023/08/14 00:55:41;;;;;;;;;;;;;;;;;;1041061;28;19912;-78
2023/08/14 00:56:11;;;;;;;;;;;;;;;;;;1041113;28;19909;-78
2023/08/14 00:56:41;;;;;;;;;;;;;;;;;;1040783;28;20456;-79
2023/08/14 00:57:11;;;;;;;;;;;;;;;;;;1040967;28;19917;-78
2023/08/14 00:57:42;;;;;;;;;;;;;;;;;;1041076;28;19948;-78
2023/08/14 00:58:12;;;;;;;;;;;;;;;;;;1040873;28;20160;-78
2023/08/14 00:58:42;;;;;;;;;;;;;;;;;;1040719;28;19939;-78
2023/08/14 00:59:12;;;;;;;;;;;;;;;;;;1037637;28;19909;-77
2023/08/14 00:59:43;;;;;;;;;;;;;;;;;;1036102;28;19952;-76
2023/08/14 01:00:13;;;;;;;;;;;;;;;;;;1028808;28;19910;-78
2023/08/14 01:00:43;;;;;;;;;;;;;;;;;;1032694;28;19917;-78
2023/08/14 01:01:14;;;;;;;;;;;;;;;;;;1028728;28;19961;-78
2023/08/14 01:01:44;;;;;;;;;;;;;;;;;;1034268;28;19910;-78
2023/08/14 01:02:14;;;;;;;;;;;;;;;;;;1036718;28;20292;-79
2023/08/14 01:02:44;;;;;;;;;;;;;;;;;;1036979;28;20305;-79
2023/08/14 01:03:15;;;;;;;;;;;;;;;;;;1040996;28;20405;-78
2023/08/14 01:03:45;;;;;;;;;;;;;;;;;;1040904;28;20008;-78
2023/08/14 01:04:15;;;;;;;;;;;;;;;;;;1040839;28;19909;-78
2023/08/14 01:04:45;;;;;;;;;;;;;;;;;;1040680;28;19945;-77
2023/08/14 01:05:16;;;;;;;;;;;;;;;;;;1041028;28;19977;-78
2023/08/14 01:05:46;;;;;;;;;;;;;;;;;;1040969;28;20007;-79
2023/08/14 01:06:16;;;;;;;;;;;;;;;;;;1045356;28;19909;-79
2023/08/14 01:06:46;;;;;;;;;;;;;;;;;;1040883;28;20031;-79
2023/08/14 01:07:16;;;;;;;;;;;;;;;;;;1040733;28;20012;-79
2023/08/14 01:07:47;;;;;;;;;;;;;;;;;;1041134;28;19943;-79
2023/08/14 01:08:17;;;;;;;;;;;;;;;;;;1040938;28;19909;-78
2023/08/14 01:08:47;;;;;;;;;;;;;;;;;;1040841;28;20369;-78
2023/08/14 01:09:17;;;;;;;;;;;;;;;;;;1040225;28;19917;-78
2023/08/14 01:09:48;;;;;;;;;;;;;;;;;;1036802;28;20012;-78
2023/08/14 01:10:18;;;;;;;;;;;;;;;;;;1040911;28;20309;-78
2023/08/14 01:10:48;;;;;;;;;;;;;;;;;;1040975;28;19909;-78
2023/08/14 01:11:18;;;;;;;;;;;;;;;;;;1040753;28;19921;-78
2023/08/14 01:11:48;;;;;;;;;;;;;;;;;;1040964;28;19909;-77
2023/08/14 01:12:19;;;;;;;;;;;;;;;;;;1045285;28;20349;-77
2023/08/14 01:12:49;;;;;;;;;;;;;;;;;;1045453;28;20279;-77
2023/08/14 01:13:19;;;;;;;;;;;;;;;;;;1045065;28;19956;-75
2023/08/14 01:13:49;;;;;;;;;;;;;;;;;;1045402;28;19908;-76
2023/08/14 01:14:20;;;;;;;;;;;;;;;;;;1045324;28;19908;-77
2023/08/14 01:14:50;;;;;;;;;;;;;;;;;;1045300;28;19909;-77
2023/08/14 01:15:20;;;;;;;;;;;;;;;;;;1045203;28;19916;-77
2023/08/14 01:15:50;;;;;;;;;;;;;;;;;;1045305;28;19909;-76
2023/08/14 01:16:20;;;;;;;;;;;;;;;;;;1045222;28;19909;-76
2023/08/14 01:16:51;;;;;;;;;;;;;;;;;;1045295;28;19944;-76
2023/08/14 01:17:21;;;;;;;;;;;;;;;;;;1045029;28;19913;-77
2023/08/14 01:17:51;;;;;;;;;;;;;;;;;;1045340;28;19913;-77
2023/08/14 01:18:21;;;;;;;;;;;;;;;;;;1040691;28;19909;-76
2023/08/14 01:18:52;;;;;;;;;;;;;;;;;;1041005;28;19956;-78
2023/08/14 01:19:22;;;;;;;;;;;;;;;;;;1040728;28;19931;-78
2023/08/14 01:19:53;;;;;;;;;;;;;;;;;;1036638;28;19960;-77
2023/08/14 01:20:23;;;;;;;;;;;;;;;;;;1040975;28;20018;-77
2023/08/14 01:20:53;;;;;;;;;;;;;;;;;;1040750;28;19920;-78
2023/08/14 01:21:23;;;;;;;;;;;;;;;;;;1041007;28;19939;-79
2023/08/14 01:21:53;;;;;;;;;;;;;;;;;;1040935;28;20369;-78
2023/08/14 01:22:24;;;;;;;;;;;;;;;;;;1041064;28;20320;-77
2023/08/14 01:22:54;;;;;;;;;;;;;;;;;;1040724;28;19909;-77
2023/08/14 01:23:24;;;;;;;;;;;;;;;;;;1040850;28;19917;-77
2023/08/14 01:23:54;;;;;;;;;;;;;;;;;;1040810;28;20381;-79
2023/08/14 01:24:25;;;;;;;;;;;;;;;;;;1040989;28;20487;-76
2023/08/14 01:24:55;;;;;;;;;;;;;;;;;;1040690;28;20067;-76
2023/08/14 01:25:25;;;;;;;;;;;;;;;;;;1040507;28;19913;-76
2023/08/14 01:25:55;;;;;;;;;;;;;;;;;;1040849;28;20389;-77
2023/08/14 01:26:26;;;;;;;;;;;;;;;;;;1040885;28;19910;-75
2023/08/14 01:26:56;;;;;;;;;;;;;;;;;;1040432;28;20198;-76
2023/08/14 01:27:26;;;;;;;;;;;;;;;;;;1039179;28;20266;-78
2023/08/14 01:27:56;;;;;;;;;;;;;;;;;;1040560;28;19916;-78
2023/08/14 01:28:26;;;;;;;;;;;;;;;;;;1040863;28;19916;-76
2023/08/14 01:28:57;;;;;;;;;;;;;;;;;;1044869;28;20457;-76
2023/08/14 01:29:27;;;;;;;;;;;;;;;;;;1044921;28;19919;-76
2023/08/14 01:29:57;;;;;;;;;;;;;;;;;;1044738;28;20316;-75
2023/08/14 01:30:28;;;;;;;;;;;;;;;;;;1044792;28;20388;-75
2023/08/14 01:30:58;;;;;;;;;;;;;;;;;;1044734;28;20442;-76
2023/08/14 01:31:28;;;;;;;;;;;;;;;;;;1044701;28;19963;-76
2023/08/14 01:31:58;;;;;;;;;;;;;;;;;;1044781;28;19909;-78
2023/08/14 01:32:28;;;;;;;;;;;;;;;;;;1040747;28;19920;-78
2023/08/14 01:32:59;;;;;;;;;;;;;;;;;;1040883;28;19909;-78
2023/08/14 01:33:29;;;;;;;;;;;;;;;;;;1036390;28;19960;-77
2023/08/14 01:33:59;;;;;;;;;;;;;;;;;;1036675;28;19944;-76
2023/08/14 01:34:29;;;;;;;;;;;;;;;;;;1036530;28;20366;-76
2023/08/14 01:35:00;;;;;;;;;;;;;;;;;;1036344;28;19913;-77
2023/08/14 01:35:30;;;;;;;;;;;;;;;;;;1036307;28;19967;-77
2023/08/14 01:36:00;;;;;;;;;;;;;;;;;;1036249;28;19918;-76
2023/08/14 01:36:30;;;;;;;;;;;;;;;;;;1040129;28;20444;-76
2023/08/14 01:37:01;;;;;;;;;;;;;;;;;;1040334;28;20400;-76
2023/08/14 01:37:31;;;;;;;;;;;;;;;;;;1040770;28;20423;-77
2023/08/14 01:38:01;;;;;;;;;;;;;;;;;;1040743;28;20377;-77
2023/08/14 01:38:31;;;;;;;;;;;;;;;;;;1040646;28;20456;-78
2023/08/14 01:39:01;;;;;;;;;;;;;;;;;;1040768;28;20277;-77
2023/08/14 01:39:32;;;;;;;;;;;;;;;;;;1040830;28;19960;-76
2023/08/14 01:40:03;;;;;;;;;;;;;;;;;;1040518;28;19955;-77
2023/08/14 01:40:33;;;;;;;;;;;;;;;;;;1036636;28;19913;-76
2023/08/14 01:41:03;;;;;;;;;;;;;;;;;;1036419;28;19913;-75
2023/08/14 01:41:34;;;;;;;;;;;;;;;;;;1036521;28;19917;-76
2023/08/14 01:42:04;;;;;;;;;;;;;;;;;;1040491;28;19929;-76
2023/08/14 01:42:34;;;;;;;;;;;;;;;;;;1040158;28;19920;-76
2023/08/14 01:43:04;;;;;;;;;;;;;;;;;;1039787;28;20459;-77
2023/08/14 01:43:34;;;;;;;;;;;;;;;;;;1036542;28;20270;-76
2023/08/14 01:44:05;;;;;;;;;;;;;;;;;;1036447;28;20019;-77
2023/08/14 01:44:35;;;;;;;;;;;;;;;;;;1036339;28;20000;-76
2023/08/14 01:45:05;;;;;;;;;;;;;;;;;;1036475;28;19914;-78
2023/08/14 01:45:35;;;;;;;;;;;;;;;;;;1036141;28;19972;-78
2023/08/14 01:46:06;;;;;;;;;;;;;;;;;;1036301;28;19913;-77
2023/08/14 01:46:36;;;;;;;;;;;;;;;;;;1040615;28;19920;-77
2023/08/14 01:47:06;;;;;;;;;;;;;;;;;;1035298;28;19914;-76
2023/08/14 01:47:37;;;;;;;;;;;;;;;;;;1036264;28;20370;-76
2023/08/14 01:48:07;;;;;;;;;;;;;;;;;;1040315;28;19909;-76
2023/08/14 01:48:37;;;;;;;;;;;;;;;;;;1040677;28;19963;-76
2023/08/14 01:49:07;;;;;;;;;;;;;;;;;;1044940;28;19916;-76
2023/08/14 01:49:38;;;;;;;;;;;;;;;;;;1040531;28;19924;-76
2023/08/14 01:50:08;;;;;;;;;;;;;;;;;;1040563;28;20007;-75
2023/08/14 01:50:38;;;;;;;;;;;;;;;;;;1040757;28;20464;-78
2023/08/14 01:51:08;;;;;;;;;;;;;;;;;;1040676;28;19909;-78
2023/08/14 01:51:39;;;;;;;;;;;;;;;;;;1040277;28;20011;-78
2023/08/14 01:52:09;;;;;;;;;;;;;;;;;;1040789;28;19948;-78
2023/08/14 01:52:39;;;;;;;;;;;;;;;;;;1040843;28;19952;-77
2023/08/14 01:53:09;;;;;;;;;;;;;;;;;;1040790;28;20011;-78
2023/08/14 01:53:40;;;;;;;;;;;;;;;;;;1044977;28;19912;-78
2023/08/14 01:54:10;;;;;;;;;;;;;;;;;;1044977;28;19924;-76
2023/08/14 01:54:40;;;;;;;;;;;;;;;;;;1045144;28;19960;-75
2023/08/14 01:55:11;;;;;;;;;;;;;;;;;;1045117;28;19909;-75
2023/08/14 01:55:41;;;;;;;;;;;;;;;;;;1040167;28;21288;-76
2023/08/14 01:56:11;;;;;;;;;;;;;;;;;;1040649;28;20293;-76
2023/08/14 01:56:41;;;;;;;;;;;;;;;;;;1040689;28;19979;-76
2023/08/14 01:57:12;;;;;;;;;;;;;;;;;;1040698;28;19909;-76
2023/08/14 01:57:42;;;;;;;;;;;;;;;;;;1040454;28;19915;-76
2023/08/14 01:58:12;;;;;;;;;;;;;;;;;;1036407;28;20571;-76
2023/08/14 01:58:42;;;;;;;;;;;;;;;;;;1036585;28;19952;-76
2023/08/14 01:59:13;;;;;;;;;;;;;;;;;;1036513;28;19944;-76
2023/08/14 01:59:43;;;;;;;;;;;;;;;;;;1036308;28;20317;-74
2023/08/14 02:00:13;;;;;;;;;;;;;;;;;;1040627;28;19909;-76
2023/08/14 02:00:43;;;;;;;;;;;;;;;;;;1036419;28;20361;-76
2023/08/14 02:01:13;;;;;;;;;;;;;;;;;;1036561;28;20282;-76
2023/08/14 02:01:44;;;;;;;;;;;;;;;;;;1040497;28;20293;-78
2023/08/14 02:02:14;;;;;;;;;;;;;;;;;;1040607;28;19955;-76
2023/08/14 02:02:44;;;;;;;;;;;;;;;;;;1040592;28;19909;-75
2023/08/14 02:03:14;;;;;;;;;;;;;;;;;;1040748;28;19947;-75
2023/08/14 02:03:45;;;;;;;;;;;;;;;;;;1040522;28;19924;-76
2023/08/14 02:04:15;;;;;;;;;;;;;;;;;;1036397;28;19948;-76
2023/08/14 02:04:45;;;;;;;;;;;;;;;;;;1040555;28;19952;-76
2023/08/14 02:05:15;;;;;;;;;;;;;;;;;;1040503;28;20570;-77
2023/08/14 02:05:46;;;;;;;;;;;;;;;;;;1040130;28;20011;-75
2023/08/14 02:06:16;;;;;;;;;;;;;;;;;;1040545;28;19910;-76
2023/08/14 02:06:46;;;;;;;;;;;;;;;;;;1040688;28;20012;-76
2023/08/14 02:07:16;;;;;;;;;;;;;;;;;;1036415;28;19959;-77
2023/08/14 02:07:47;;;;;;;;;;;;;;;;;;1036366;28;20381;-76
2023/08/14 02:08:17;;;;;;;;;;;;;;;;;;1036577;28;19956;-76
2023/08/14 02:08:47;;;;;;;;;;;;;;;;;;1032407;28;19913;-77
2023/08/14 02:09:17;;;;;;;;;;;;;;;;;;1036530;28;19921;-78
2023/08/14 02:09:47;;;;;;;;;;;;;;;;;;1036389;28;19918;-76
2023/08/14 02:10:18;;;;;;;;;;;;;;;;;;1036561;28;19917;-77
2023/08/14 02:10:48;;;;;;;;;;;;;;;;;;1040786;28;19956;-78
2023/08/14 02:11:18;;;;;;;;;;;;;;;;;;1040746;28;19909;-78
2023/08/14 02:11:48;;;;;;;;;;;;;;;;;;1045042;28;20391;-78
2023/08/14 02:12:19;;;;;;;;;;;;;;;;;;1044877;28;19917;-77
2023/08/14 02:12:49;;;;;;;;;;;;;;;;;;1040688;28;20012;-78
2023/08/14 02:13:19;;;;;;;;;;;;;;;;;;1039564;28;20007;-78
2023/08/14 02:13:49;;;;;;;;;;;;;;;;;;1040385;28;19913;-78
2023/08/14 02:14:20;;;;;;;;;;;;;;;;;;1040703;28;19987;-77
2023/08/14 02:14:50;;;;;;;;;;;;;;;;;;1036465;28;19909;-77
2023/08/14 02:15:22;;;;;;;;;;;;;;;;;;1036646;28;20005;-78
2023/08/14 02:15:52;;;;;;;;;;;;;;;;;;1040439;28;19916;-78
2023/08/14 02:16:23;;;;;;;;;;;;;;;;;;1040396;28;19916;-79
2023/08/14 02:16:53;;;;;;;;;;;;;;;;;;1048848;23;19914;-78
2023/08/14 02:17:23;;;;;;;;;;;;;;;;;;1043794;28;19924;-76
2023/08/14 02:17:53;;;;;;;;;;;;;;;;;;1048543;28;19909;-76
2023/08/14 02:18:23;;;;;;;;;;;;;;;;;;1049258;28;19915;-79
2023/08/14 02:18:54;;;;;;;;;;;;;;;;;;1044635;28;19916;-79
2023/08/14 02:19:24;;;;;;;;;;;;;;;;;;1044790;28;19909;-76
2023/08/14 02:19:54;;;;;;;;;;;;;;;;;;1044467;28;19909;-76
2023/08/14 02:20:25;;;;;;;;;;;;;;;;;;1044829;28;19948;-76
2023/08/14 02:20:55;;;;;;;;;;;;;;;;;;1048416;28;20418;-77
2023/08/14 02:21:25;;;;;;;;;;;;;;;;;;1049443;28;19916;-77
2023/08/14 02:21:55;;;;;;;;;;;;;;;;;;1048650;28;19909;-76
2023/08/14 02:22:26;;;;;;;;;;;;;;;;;;1048838;28;20335;-78
2023/08/14 02:22:56;;;;;;;;;;;;;;;;;;1047199;28;19908;-78
2023/08/14 02:23:26;;;;;;;;;;;;;;;;;;1036297;28;20004;-78
2023/08/14 02:23:56;;;;;;;;;;;;;;;;;;1038289;28;19909;-78
2023/08/14 02:24:27;;;;;;;;;;;;;;;;;;1044844;28;19909;-78
2023/08/14 02:24:57;;;;;;;;;;;;;;;;;;1040445;28;20389;-78
2023/08/14 02:25:27;;;;;;;;;;;;;;;;;;1038860;28;20400;-77
2023/08/14 02:25:57;;;;;;;;;;;;;;;;;;1042178;28;20392;-77
2023/08/14 02:26:27;;;;;;;;;;;;;;;;;;1040892;28;20385;-78
2023/08/14 02:26:58;;;;;;;;;;;;;;;;;;1043192;28;19921;-77
2023/08/14 02:27:28;;;;;;;;;;;;;;;;;;1043922;28;19956;-77
2023/08/14 02:27:58;;;;;;;;;;;;;;;;;;1043252;28;20547;-77
2023/08/14 02:28:28;;;;;;;;;;;;;;;;;;1044183;28;20441;-79
2023/08/14 02:28:59;;;;;;;;;;;;;;;;;;1044769;28;20030;-79
2023/08/14 02:29:29;;;;;;;;;;;;;;;;;;1053146;28;19908;-79
2023/08/14 02:29:59;;;;;;;;;;;;;;;;;;1048283;28;19989;-79
2023/08/14 02:30:29;;;;;;;;;;;;;;;;;;1044814;28;19974;-79
2023/08/14 02:31:00;;;;;;;;;;;;;;;;;;1044306;28;19917;-79
2023/08/14 02:31:30;;;;;;;;;;;;;;;;;;1048854;28;20003;-79
2023/08/14 02:32:00;;;;;;;;;;;;;;;;;;1048212;28;19990;-79
2023/08/14 02:32:30;;;;;;;;;;;;;;;;;;1048943;28;19915;-79
2023/08/14 02:33:01;;;;;;;;;;;;;;;;;;1048050;28;19908;-78
2023/08/14 02:33:31;;;;;;;;;;;;;;;;;;1044761;28;20403;-76
2023/08/14 02:34:01;;;;;;;;;;;;;;;;;;1043105;28;19915;-76
2023/08/14 02:34:32;;;;;;;;;;;;;;;;;;1047336;28;19916;-76
2023/08/14 02:35:03;;;;;;;;;;;;;;;;;;1045132;28;19986;-76
2023/08/14 02:35:34;;;;;;;;;;;;;;;;;;1039932;28;19919;-77
2023/08/14 02:36:04;;;;;;;;;;;;;;;;;;1043807;28;19908;-78
2023/08/14 02:36:34;;;;;;;;;;;;;;;;;;1043032;28;19995;-76
2023/08/14 02:37:05;;;;;;;;;;;;;;;;;;1042501;28;19911;-76
2023/08/14 02:37:35;;;;;;;;;;;;;;;;;;1040168;28;19913;-76
2023/08/14 02:38:05;;;;;;;;;;;;;;;;;;1039555;28;19932;-76
2023/08/14 02:38:35;;;;;;;;;;;;;;;;;;1040415;28;19928;-76
2023/08/14 02:39:06;;;;;;;;;;;;;;;;;;1040157;28;19909;-79
2023/08/14 02:39:36;;;;;;;;;;;;;;;;;;1040552;28;19999;-77
2023/08/14 02:40:07;;;;;;;;;;;;;;;;;;1044102;28;20399;-78
2023/08/14 02:40:37;;;;;;;;;;;;;;;;;;1044523;28;20308;-76
2023/08/14 02:41:07;;;;;;;;;;;;;;;;;;1039973;28;19909;-76
2023/08/14 02:41:37;;;;;;;;;;;;;;;;;;1044647;28;19917;-76
2023/08/14 02:42:08;;;;;;;;;;;;;;;;;;1043759;28;19956;-76
2023/08/14 02:42:38;;;;;;;;;;;;;;;;;;1040364;28;19923;-76
2023/08/14 02:43:08;;;;;;;;;;;;;;;;;;1044261;28;20368;-78
2023/08/14 02:43:39;;;;;;;;;;;;;;;;;;1040645;28;19952;-78
2023/08/14 02:44:09;;;;;;;;;;;;;;;;;;1039828;28;19909;-77
2023/08/14 02:44:39;;;;;;;;;;;;;;;;;;1044608;28;19920;-79
2023/08/14 02:45:09;;;;;;;;;;;;;;;;;;1044252;28;19915;-77
2023/08/14 02:45:40;;;;;;;;;;;;;;;;;;1044721;28;19920;-80
2023/08/14 02:46:10;;;;;;;;;;;;;;;;;;1044085;28;20019;-77
2023/08/14 02:46:40;;;;;;;;;;;;;;;;;;1048892;28;19912;-77
2023/08/14 02:47:10;;;;;;;;;;;;;;;;;;1048631;28;19916;-77
2023/08/14 02:47:41;;;;;;;;;;;;;;;;;;1044253;28;19920;-77
2023/08/14 02:48:11;;;;;;;;;;;;;;;;;;1039598;28;19909;-77
2023/08/14 02:48:41;;;;;;;;;;;;;;;;;;1040200;28;19913;-76
2023/08/14 02:49:11;;;;;;;;;;;;;;;;;;1040049;28;20280;-76
2023/08/14 02:49:42;;;;;;;;;;;;;;;;;;1044323;28;20004;-76
2023/08/14 02:50:12;;;;;;;;;;;;;;;;;;1044059;28;19909;-76
2023/08/14 02:50:42;;;;;;;;;;;;;;;;;;1040236;28;19909;-76
2023/08/14 02:51:14;;;;;;;;;;;;;;;;;;1044303;28;19999;-77
2023/08/14 02:51:45;;;;;;;;;;;;;;;;;;1044516;28;19959;-78
2023/08/14 02:52:15;;;;;;;;;;;;;;;;;;1044259;28;19942;-78
2023/08/14 02:52:45;;;;;;;;;;;;;;;;;;1044309;28;19959;-77
2023/08/14 02:53:15;;;;;;;;;;;;;;;;;;1044363;28;20003;-77
2023/08/14 02:53:46;;;;;;;;;;;;;;;;;;1048314;28;19915;-76
2023/08/14 02:54:16;;;;;;;;;;;;;;;;;;1044107;28;20005;-77
2023/08/14 02:54:46;;;;;;;;;;;;;;;;;;1047291;28;19912;-77
2023/08/14 02:55:16;;;;;;;;;;;;;;;;;;1048650;28;19908;-80
2023/08/14 02:55:47;;;;;;;;;;;;;;;;;;1044522;28;20392;-78
2023/08/14 02:56:17;;;;;;;;;;;;;;;;;;1044567;28;20346;-78
2023/08/14 02:56:47;;;;;;;;;;;;;;;;;;1044346;28;19920;-78
2023/08/14 02:57:18;;;;;;;;;;;;;;;;;;1044219;28;19909;-79
2023/08/14 02:57:48;;;;;;;;;;;;;;;;;;1044401;28;20018;-79
2023/08/14 02:58:18;;;;;;;;;;;;;;;;;;1044497;28;19908;-78
2023/08/14 02:58:48;;;;;;;;;;;;;;;;;;1044347;28;19915;-78
2023/08/14 02:59:19;;;;;;;;;;;;;;;;;;1044422;28;19909;-78
2023/08/14 02:59:49;;;;;;;;;;;;;;;;;;1044418;28;20315;-78
2023/08/14 03:00:20;;;;;;;;;;;;;;;;;;1048484;28;19912;-77
2023/08/14 03:00:50;;;;;;;;;;;;;;;;;;1048787;28;20429;-77
2023/08/14 03:01:20;;;;;;;;;;;;;;;;;;1048674;28;19908;-75
2023/08/14 03:01:51;;;;;;;;;;;;;;;;;;1047987;28;19908;-76
2023/08/14 03:02:21;;;;;;;;;;;;;;;;;;1048382;28;20446;-76
2023/08/14 03:02:51;;;;;;;;;;;;;;;;;;1047871;28;19911;-76
2023/08/14 03:03:22;;;;;;;;;;;;;;;;;;1048776;28;19909;-76
2023/08/14 03:03:52;;;;;;;;;;;;;;;;;;1048279;28;20003;-76
2023/08/14 03:04:22;;;;;;;;;;;;;;;;;;1044315;28;19979;-76
2023/08/14 03:04:52;;;;;;;;;;;;;;;;;;1048319;28;20007;-77
2023/08/14 03:05:22;;;;;;;;;;;;;;;;;;1048845;28;19908;-77
2023/08/14 03:05:53;;;;;;;;;;;;;;;;;;1046273;28;19934;-77
2023/08/14 03:06:23;;;;;;;;;;;;;;;;;;1043473;28;19955;-77
2023/08/14 03:06:53;;;;;;;;;;;;;;;;;;1044427;28;20448;-78
2023/08/14 03:07:23;;;;;;;;;;;;;;;;;;1039937;28;20388;-76
2023/08/14 03:07:54;;;;;;;;;;;;;;;;;;1042441;28;19999;-77
2023/08/14 03:08:24;;;;;;;;;;;;;;;;;;1044211;28;19909;-77
2023/08/14 03:08:54;;;;;;;;;;;;;;;;;;1044405;28;19958;-77
2023/08/14 03:09:24;;;;;;;;;;;;;;;;;;1040217;28;19909;-77
2023/08/14 03:09:56;;;;;;;;;;;;;;;;;;1044297;28;19908;-78
2023/08/14 03:10:26;;;;;;;;;;;;;;;;;;1044232;28;19909;-76
2023/08/14 03:10:56;;;;;;;;;;;;;;;;;;1044443;28;19909;-76
2023/08/14 03:11:27;;;;;;;;;;;;;;;;;;1043855;28;19959;-77
2023/08/14 03:11:57;;;;;;;;;;;;;;;;;;1043972;28;19978;-75
2023/08/14 03:12:27;;;;;;;;;;;;;;;;;;1043915;28;20410;-76
2023/08/14 03:12:57;;;;;;;;;;;;;;;;;;1044318;28;20046;-77
2023/08/14 03:13:28;;;;;;;;;;;;;;;;;;1047865;28;19917;-77
2023/08/14 03:13:58;;;;;;;;;;;;;;;;;;1048355;28;19923;-79
2023/08/14 03:14:28;;;;;;;;;;;;;;;;;;1048021;28;20007;-76
2023/08/14 03:14:58;;;;;;;;;;;;;;;;;;1044496;28;19909;-76
2023/08/14 03:15:28;;;;;;;;;;;;;;;;;;1044318;28;19908;-75
2023/08/14 03:15:59;;;;;;;;;;;;;;;;;;1048430;28;19935;-75
2023/08/14 03:16:29;;;;;;;;;;;;;;;;;;1048371;28;19909;-76
2023/08/14 03:16:59;;;;;;;;;;;;;;;;;;1047794;28;20384;-77
2023/08/14 03:17:29;;;;;;;;;;;;;;;;;;1042855;28;19999;-77
2023/08/14 03:18:00;;;;;;;;;;;;;;;;;;1044197;28;19967;-77
2023/08/14 03:18:30;;;;;;;;;;;;;;;;;;1043889;28;20023;-77
2023/08/14 03:19:00;;;;;;;;;;;;;;;;;;1043960;28;20363;-77
2023/08/14 03:19:30;;;;;;;;;;;;;;;;;;1044181;28;19969;-77
2023/08/14 03:20:01;;;;;;;;;;;;;;;;;;1043908;28;19915;-75
2023/08/14 03:20:31;;;;;;;;;;;;;;;;;;1014872;28;20011;-76
2023/08/14 03:21:01;;;;;;;;;;;;;;;;;;1045246;28;19944;-76
2023/08/14 03:21:32;;;;;;;;;;;;;;;;;;1044566;28;19976;-77
2023/08/14 03:22:02;;;;;;;;;;;;;;;;;;1038688;28;19954;-77
2023/08/14 03:22:32;;;;;;;;;;;;;;;;;;1035970;28;19913;-77
2023/08/14 03:23:02;;;;;;;;;;;;;;;;;;1036046;28;20334;-75
2023/08/14 03:23:33;;;;;;;;;;;;;;;;;;1035417;28;20301;-76
2023/08/14 03:24:03;;;;;;;;;;;;;;;;;;1035674;28;19909;-77
2023/08/14 03:24:33;;;;;;;;;;;;;;;;;;1035638;28;19917;-77
2023/08/14 03:25:03;;;;;;;;;;;;;;;;;;1040017;28;19909;-77
2023/08/14 03:25:34;;;;;;;;;;;;;;;;;;1043824;28;20004;-76
2023/08/14 03:26:04;;;;;;;;;;;;;;;;;;1039310;28;19910;-75
2023/08/14 03:26:34;;;;;;;;;;;;;;;;;;1039142;28;19976;-75